createdAt,value
2018-02-17T00:00:48.255Z,1.00
2018-02-17T00:03:15.819Z,1.00
2018-02-17T00:05:43.348Z,1.10
2018-02-17T00:08:11.668Z,1.10
2018-02-17T00:10:39.203Z,1.10
2018-02-17T00:13:06.771Z,1.20
2018-02-17T00:15:34.302Z,1.30
2018-02-17T00:18:01.868Z,1.50
2018-02-17T00:20:30.172Z,1.60
2018-02-17T00:22:57.730Z,1.60
2018-02-17T00:25:25.263Z,1.60
2018-02-17T00:27:52.848Z,1.60
2018-02-17T00:30:20.455Z,1.70
2018-02-17T00:32:48.021Z,1.80
2018-02-17T00:35:15.555Z,1.80
2018-02-17T00:37:43.111Z,1.90
2018-02-17T00:40:10.652Z,1.90
2018-02-17T00:42:38.973Z,1.90
2018-02-17T00:45:06.504Z,1.90
2018-02-17T00:47:34.065Z,1.80
2018-02-17T00:50:01.598Z,1.60
2018-02-17T00:52:29.158Z,1.60
2018-02-17T00:54:56.685Z,1.60
2018-02-17T00:57:24.235Z,1.50
2018-02-17T00:59:51.776Z,1.40
2018-02-17T01:02:19.335Z,1.50
2018-02-17T01:04:46.870Z,1.50
2018-02-17T01:07:15.196Z,1.50
2018-02-17T01:09:42.744Z,1.50
2018-02-17T01:12:10.281Z,1.50
2018-02-17T01:14:38.599Z,1.40
2018-02-17T01:17:06.127Z,1.40
2018-02-17T01:19:33.678Z,1.50
2018-02-17T01:22:01.970Z,1.70
2018-02-17T01:24:29.522Z,1.70
2018-02-17T01:26:57.814Z,1.80
2018-02-17T01:29:25.366Z,1.70
2018-02-17T01:31:52.903Z,1.80
2018-02-17T01:34:20.460Z,1.70
2018-02-17T01:36:47.989Z,1.80
2018-02-17T01:39:15.539Z,1.80
2018-02-17T01:41:43.071Z,1.70
2018-02-17T01:44:10.623Z,1.90
2018-02-17T01:46:38.924Z,2.10
2018-02-17T01:49:06.474Z,2.00
2018-02-17T01:51:34.002Z,2.00
2018-02-17T01:54:01.558Z,2.00
2018-02-17T01:56:29.095Z,2.10
2018-02-17T01:58:56.649Z,2.20
2018-02-17T02:01:24.173Z,2.30
2018-02-17T02:03:51.720Z,2.30
2018-02-17T02:06:20.018Z,2.20
2018-02-17T02:08:47.574Z,2.20
2018-02-17T02:11:15.106Z,2.20
2018-02-17T02:13:43.423Z,2.10
2018-02-17T02:16:10.946Z,2.10
2018-02-17T02:18:39.243Z,2.00
2018-02-17T02:21:06.794Z,2.00
2018-02-17T02:23:35.087Z,2.10
2018-02-17T02:26:02.645Z,2.00
2018-02-17T02:28:30.178Z,2.20
2018-02-17T02:30:58.509Z,2.30
2018-02-17T02:33:26.041Z,2.30
2018-02-17T02:35:53.590Z,2.30
2018-02-17T02:38:21.136Z,2.30
2018-02-17T02:40:49.466Z,2.40
2018-02-17T02:43:16.996Z,2.40
2018-02-17T02:45:44.554Z,2.40
2018-02-17T02:48:12.093Z,2.40
2018-02-17T02:50:40.415Z,2.20
2018-02-17T02:53:07.942Z,2.20
2018-02-17T02:55:36.269Z,2.20
2018-02-17T02:58:03.804Z,2.20
2018-02-17T03:00:31.369Z,2.20
2018-02-17T03:02:58.902Z,2.40
2018-02-17T03:05:27.190Z,2.30
2018-02-17T03:07:54.740Z,2.30
2018-02-17T03:10:22.278Z,2.20
2018-02-17T03:12:49.822Z,2.30
2018-02-17T03:15:17.354Z,2.30
2018-02-17T03:17:44.910Z,2.30
2018-02-17T03:20:12.443Z,2.30
2018-02-17T03:22:40.004Z,2.30
2018-02-17T03:25:07.543Z,2.30
2018-02-17T03:27:35.878Z,2.30
2018-02-17T03:30:03.417Z,2.30
2018-02-17T03:32:30.970Z,2.30
2018-02-17T03:34:58.506Z,2.30
2018-02-17T03:37:26.816Z,2.40
2018-02-17T03:39:54.353Z,2.40
2018-02-17T03:42:21.906Z,2.30
2018-02-17T03:44:50.198Z,2.30
2018-02-17T03:47:17.763Z,2.30
2018-02-17T03:49:45.289Z,2.40
2018-02-17T03:52:13.591Z,2.50
2018-02-17T03:54:41.147Z,2.50
2018-02-17T03:57:08.678Z,2.50
2018-02-17T03:59:36.247Z,2.50
2018-02-17T04:02:04.542Z,2.20
2018-02-17T04:04:32.101Z,2.20
2018-02-17T04:06:59.636Z,2.20
2018-02-17T04:09:27.974Z,2.30
2018-02-17T04:11:55.506Z,2.30
2018-02-17T04:14:23.054Z,2.40
2018-02-17T04:16:51.346Z,2.40
2018-02-17T04:19:18.902Z,2.40
2018-02-17T04:21:46.433Z,2.40
2018-02-17T04:24:14.770Z,2.30
2018-02-17T04:26:42.302Z,2.30
2018-02-17T04:29:09.855Z,2.30
2018-02-17T04:31:37.396Z,2.40
2018-02-17T04:34:05.715Z,2.50
2018-02-17T04:36:33.249Z,2.40
2018-02-17T04:39:00.802Z,2.50
2018-02-17T04:41:34.791Z,2.50
2018-02-17T04:47:11.618Z,2.40
2018-02-17T04:49:39.599Z,2.40
2018-02-17T04:52:10.828Z,2.40
2018-02-17T04:54:55.179Z,2.50
2018-02-17T04:57:23.182Z,2.40
2018-02-17T05:00:06.437Z,2.50
2018-02-17T05:02:46.858Z,2.50
2018-02-17T05:05:20.170Z,2.40
2018-02-17T05:07:49.606Z,2.40
2018-02-17T05:10:17.155Z,2.40
2018-02-17T05:12:44.681Z,2.40
2018-02-17T05:15:23.073Z,2.30
2018-02-17T05:18:06.401Z,2.30
2018-02-17T05:20:37.786Z,2.40
2018-02-17T05:23:05.329Z,2.40
2018-02-17T05:25:35.489Z,2.30
2018-02-17T05:28:03.044Z,2.30
2018-02-17T05:30:31.104Z,2.20
2018-02-17T05:33:04.460Z,2.20
2018-02-17T05:35:41.950Z,2.30
2018-02-17T05:38:09.481Z,2.20
2018-02-17T05:40:42.746Z,2.00
2018-02-17T05:43:10.287Z,2.00
2018-02-17T05:45:41.527Z,2.10
2018-02-17T05:48:09.546Z,2.10
2018-02-17T05:50:37.114Z,2.00
2018-02-17T05:53:05.420Z,2.10
2018-02-17T05:55:32.982Z,2.00
2018-02-17T05:58:00.530Z,2.10
2018-02-17T06:00:28.087Z,2.30
2018-02-17T06:02:55.620Z,2.10
2018-02-17T06:05:23.942Z,2.10
2018-02-17T06:07:51.465Z,2.10
2018-02-17T06:10:19.794Z,2.00
2018-02-17T06:12:47.328Z,2.00
2018-02-17T06:15:14.881Z,2.00
2018-02-17T06:17:42.407Z,1.90
2018-02-17T06:20:09.947Z,2.00
2018-02-17T06:22:37.502Z,2.00
2018-02-17T06:25:05.042Z,1.90
2018-02-17T06:27:32.598Z,2.00
2018-02-17T06:30:00.125Z,1.90
2018-02-17T06:54:03.534Z,1.50
2018-02-17T06:56:31.098Z,1.50
2018-02-17T06:58:58.626Z,1.60
2018-02-17T07:01:29.966Z,1.60
2018-02-17T07:03:57.497Z,1.70
2018-02-17T07:06:25.819Z,1.50
2018-02-17T07:08:53.347Z,1.50
2018-02-17T07:11:20.907Z,1.50
2018-02-17T07:13:48.446Z,1.40
2018-02-17T07:16:16.776Z,1.50
2018-02-17T07:18:44.328Z,1.50
2018-02-17T07:21:11.882Z,1.30
2018-02-17T07:23:39.411Z,1.40
2018-02-17T07:26:06.979Z,1.30
2018-02-17T07:28:34.507Z,1.30
2018-02-17T07:31:02.835Z,1.30
2018-02-17T07:33:30.381Z,1.30
2018-02-17T07:35:57.917Z,1.30
2018-02-17T07:38:26.232Z,1.50
2018-02-17T07:40:53.763Z,1.50
2018-02-17T07:43:21.315Z,1.40
2018-02-17T07:45:49.610Z,1.40
2018-02-17T07:48:17.162Z,1.40
2018-02-17T07:50:44.694Z,1.50
2018-02-17T07:53:12.249Z,1.40
2018-02-17T07:55:39.785Z,1.50
2018-02-17T07:58:07.338Z,1.70
2018-02-17T08:00:34.858Z,1.70
2018-02-17T08:03:03.174Z,1.60
2018-02-17T08:05:30.699Z,1.60
2018-02-17T08:07:58.242Z,1.50
2018-02-17T08:10:26.530Z,1.40
2018-02-17T08:12:54.850Z,1.40
2018-02-17T08:15:22.382Z,1.30
2018-02-17T08:17:49.942Z,1.30
2018-02-17T08:20:17.488Z,1.40
2018-02-17T08:22:45.047Z,1.30
2018-02-17T08:25:12.588Z,1.30
2018-02-17T08:27:40.923Z,1.20
2018-02-17T08:30:08.462Z,1.20
2018-02-17T08:32:36.029Z,1.20
2018-02-17T08:35:03.560Z,1.20
2018-02-17T08:37:31.881Z,1.20
2018-02-17T08:39:59.402Z,1.20
2018-02-17T08:42:27.714Z,1.30
2018-02-17T08:44:55.238Z,1.30
2018-02-17T08:47:23.563Z,1.50
2018-02-17T08:49:51.103Z,1.40
2018-02-17T08:52:18.670Z,1.40
2018-02-17T08:54:46.206Z,1.20
2018-02-17T08:57:13.767Z,1.30
2018-02-17T08:59:41.301Z,1.30
2018-02-17T09:02:08.887Z,1.30
2018-02-17T09:04:36.416Z,1.40
2018-02-17T09:07:03.975Z,1.40
2018-02-17T09:09:31.514Z,1.40
2018-02-17T09:11:59.071Z,1.40
2018-02-17T09:14:26.606Z,1.40
2018-02-17T09:16:54.136Z,1.40
2018-02-17T09:19:21.691Z,1.50
2018-02-17T09:21:49.231Z,1.40
2018-02-17T09:24:16.790Z,1.50
2018-02-17T09:26:44.318Z,1.50
2018-02-17T09:29:11.871Z,1.40
2018-02-17T09:31:39.405Z,1.50
2018-02-17T09:34:06.967Z,1.40
2018-02-17T09:36:34.489Z,1.50
2018-02-17T09:39:02.821Z,1.50
2018-02-17T09:41:30.350Z,1.40
2018-02-17T09:43:57.904Z,1.40
2018-02-17T09:46:26.201Z,1.50
2018-02-17T09:48:53.749Z,1.50
2018-02-17T09:51:21.278Z,1.50
2018-02-17T09:53:49.609Z,1.30
2018-02-17T09:56:17.147Z,1.30
2018-02-17T09:58:44.699Z,1.20
2018-02-17T10:01:12.993Z,1.00
2018-02-17T10:03:40.567Z,1.00
2018-02-17T10:06:08.121Z,1.00
2018-02-17T10:08:35.688Z,1.00
2018-02-17T10:11:03.223Z,1.00
2018-02-17T10:13:30.785Z,1.00
2018-02-17T10:15:58.336Z,1.00
2018-02-17T10:18:25.900Z,1.10
2018-02-17T10:20:53.443Z,1.10
2018-02-17T10:23:21.766Z,1.10
2018-02-17T10:25:49.299Z,1.10
2018-02-17T10:28:16.863Z,1.10
2018-02-17T10:30:44.390Z,1.20
2018-02-17T10:33:11.952Z,1.20
2018-02-17T10:35:40.268Z,1.30
2018-02-17T10:38:07.826Z,1.20
2018-02-17T10:40:35.360Z,1.20
2018-02-17T10:43:03.683Z,1.40
2018-02-17T10:45:31.210Z,1.30
2018-02-17T10:47:58.763Z,1.30
2018-02-17T10:50:27.062Z,1.50
2018-02-17T10:52:54.623Z,1.40
2018-02-17T10:55:27.901Z,1.50
2018-02-17T10:57:56.227Z,1.70
2018-02-17T11:00:23.763Z,1.70
2018-02-17T11:02:51.313Z,1.70
2018-02-17T11:05:18.847Z,1.70
2018-02-17T11:07:47.175Z,1.60
2018-02-17T11:10:14.714Z,1.60
2018-02-17T11:12:42.263Z,1.60
2018-02-17T11:15:09.792Z,1.60
2018-02-17T11:17:37.351Z,1.50
2018-02-17T11:20:05.659Z,1.50
2018-02-17T11:22:33.220Z,1.50
2018-02-17T11:25:00.755Z,1.60
2018-02-17T11:27:29.075Z,1.80
2018-02-17T11:29:56.607Z,1.80
2018-02-17T11:32:24.143Z,1.80
2018-02-17T11:34:51.699Z,1.80
2018-02-17T11:37:19.241Z,1.90
2018-02-17T11:39:46.806Z,1.90
2018-02-17T11:42:14.339Z,1.90
2018-02-17T11:44:41.890Z,1.90
2018-02-17T11:47:09.417Z,1.90
2018-02-17T11:49:37.730Z,1.90
2018-02-17T11:52:05.267Z,1.90
2018-02-17T11:54:32.825Z,2.00
2018-02-17T11:57:00.355Z,1.90
2018-02-17T11:59:27.916Z,2.00
2018-02-17T12:01:55.457Z,2.00
2018-02-17T12:04:23.022Z,2.10
2018-02-17T12:06:50.551Z,2.00
2018-02-17T12:09:18.111Z,1.90
2018-02-17T12:11:45.655Z,1.90
2018-02-17T12:14:13.218Z,2.00
2018-02-17T12:16:40.756Z,2.00
2018-02-17T12:19:09.074Z,1.90
2018-02-17T12:21:36.606Z,1.90
2018-02-17T12:24:04.170Z,1.90
2018-02-17T12:26:31.707Z,1.90
2018-02-17T12:29:00.035Z,2.00
2018-02-17T12:31:27.567Z,2.00
2018-02-17T12:33:55.126Z,1.90
2018-02-17T12:36:22.660Z,1.90
2018-02-17T12:38:50.983Z,1.70
2018-02-17T12:41:18.511Z,1.70
2018-02-17T12:43:46.066Z,1.80
2018-02-17T12:46:13.606Z,1.80
2018-02-17T12:48:41.163Z,1.80
2018-02-17T12:51:08.691Z,1.80
2018-02-17T12:53:36.246Z,1.90
2018-02-17T12:56:03.774Z,1.90
2018-02-17T12:58:31.343Z,1.90
2018-02-17T13:00:58.874Z,1.80
2018-02-17T13:03:27.194Z,1.70
2018-02-17T13:05:54.722Z,1.70
2018-02-17T13:08:22.292Z,1.70
2018-02-17T13:10:49.822Z,1.70
2018-02-17T13:13:18.147Z,1.90
2018-02-17T13:15:45.678Z,1.80
2018-02-17T13:18:13.246Z,1.90
2018-02-17T13:20:40.770Z,1.90
2018-02-17T13:23:08.321Z,2.10
2018-02-17T13:25:35.851Z,2.20
2018-02-17T13:28:03.411Z,2.30
2018-02-17T13:30:30.950Z,2.30
2018-02-17T13:32:58.506Z,2.20
2018-02-17T13:35:26.039Z,2.30
2018-02-17T13:37:54.338Z,2.40
2018-02-17T13:40:21.890Z,2.40
2018-02-17T13:42:49.428Z,2.40
2018-02-17T13:45:16.986Z,2.40
2018-02-17T13:47:44.527Z,2.50
2018-02-17T13:50:12.081Z,2.60
2018-02-17T13:52:39.611Z,2.50
2018-02-17T13:55:07.161Z,2.40
2018-02-17T13:57:34.687Z,2.70
2018-02-17T14:00:03.010Z,2.70
2018-02-17T14:02:30.536Z,2.70
2018-02-17T14:04:58.857Z,2.40
2018-02-17T14:07:26.385Z,2.40
2018-02-17T14:09:53.948Z,2.40
2018-02-17T14:12:21.487Z,2.40
2018-02-17T14:14:49.822Z,2.20
2018-02-17T14:17:17.355Z,2.20
2018-02-17T14:19:44.916Z,2.30
2018-02-17T14:22:12.457Z,2.20
2018-02-17T14:24:40.779Z,2.30
2018-02-17T14:27:08.316Z,2.20
2018-02-17T14:29:35.874Z,2.30
2018-02-17T14:32:03.410Z,2.40
2018-02-17T14:34:31.740Z,2.30
2018-02-17T14:36:59.623Z,2.30
2018-02-17T14:39:27.179Z,2.30
2018-02-17T14:41:54.723Z,2.30
2018-02-17T14:44:23.044Z,2.20
2018-02-17T14:46:51.341Z,2.30
2018-02-17T14:49:18.894Z,2.20
2018-02-17T14:51:47.182Z,2.20
2018-02-17T14:54:14.735Z,2.20
2018-02-17T14:56:42.330Z,2.20
2018-02-17T14:59:09.886Z,2.30
2018-02-17T15:01:37.416Z,2.20
2018-02-17T15:04:04.974Z,2.20
2018-02-17T15:06:32.543Z,2.20
2018-02-17T15:09:00.837Z,2.00
2018-02-17T15:11:28.375Z,2.00
2018-02-17T15:13:55.933Z,1.90
2018-02-17T15:16:23.479Z,1.90
2018-02-17T15:18:51.810Z,1.80
2018-02-17T15:21:19.348Z,1.80
2018-02-17T15:23:46.913Z,2.00
2018-02-17T15:26:14.452Z,2.10
2018-02-17T15:28:42.014Z,2.00
2018-02-17T15:31:09.542Z,2.00
2018-02-17T15:33:37.102Z,2.00
2018-02-17T15:36:04.630Z,2.10
2018-02-17T15:38:32.189Z,2.10
2018-02-17T15:40:59.725Z,2.00
2018-02-17T15:43:27.256Z,2.10
2018-02-17T15:45:55.588Z,2.00
2018-02-17T15:48:23.125Z,2.00
2018-02-17T15:50:50.686Z,2.00
2018-02-17T15:53:18.225Z,1.90
2018-02-17T15:55:45.788Z,1.90
2018-02-17T15:58:13.322Z,2.00
2018-02-17T16:00:41.646Z,2.00
2018-02-17T16:03:09.181Z,1.90
2018-02-17T16:05:36.736Z,2.00
2018-02-17T16:08:04.266Z,2.00
2018-02-17T16:10:31.819Z,2.00
2018-02-17T16:12:59.358Z,2.10
2018-02-17T16:15:26.906Z,2.10
2018-02-17T16:17:54.448Z,2.10
2018-02-17T16:20:22.012Z,2.10
2018-02-17T16:22:49.551Z,2.20
2018-02-17T16:25:17.107Z,2.20
2018-02-17T16:27:44.646Z,2.00
2018-02-17T16:30:12.198Z,2.00
2018-02-17T16:32:39.727Z,2.00
2018-02-17T16:35:07.285Z,2.00
2018-02-17T16:37:34.827Z,1.90
2018-02-17T16:40:02.379Z,1.90
2018-02-17T16:42:29.908Z,2.00
2018-02-17T16:44:57.463Z,2.00
2018-02-17T16:47:24.995Z,2.00
2018-02-17T16:49:52.552Z,2.10
2018-02-17T16:52:20.094Z,2.00
2018-02-17T16:54:47.655Z,2.00
2018-02-17T16:57:15.193Z,2.00
2018-02-17T16:59:42.751Z,1.90
2018-02-17T17:02:10.282Z,1.90
2018-02-17T17:04:38.607Z,1.80
2018-02-17T17:07:06.147Z,1.80
2018-02-17T17:09:33.710Z,1.80
2018-02-17T17:12:01.247Z,1.70
2018-02-17T17:14:29.572Z,1.80
2018-02-17T17:16:57.106Z,1.70
2018-02-17T17:19:24.666Z,1.70
2018-02-17T17:21:52.223Z,1.90
2018-02-17T17:24:19.795Z,1.80
2018-02-17T17:26:47.322Z,1.80
2018-02-17T17:29:15.647Z,1.80
2018-02-17T17:31:43.181Z,1.80
2018-02-17T17:34:10.739Z,1.80
2018-02-17T17:36:38.273Z,1.80
2018-02-17T17:39:05.835Z,1.70
2018-02-17T17:41:33.371Z,1.70
2018-02-17T17:44:00.943Z,1.80
2018-02-17T17:46:28.482Z,1.70
2018-02-17T17:48:56.036Z,1.70
2018-02-17T17:51:23.598Z,1.80
2018-02-17T17:53:51.132Z,1.90
2018-02-17T17:56:18.682Z,1.90
2018-02-17T17:58:46.210Z,1.90
2018-02-17T18:01:14.537Z,2.00
2018-02-17T18:03:42.067Z,2.00
2018-02-17T18:06:10.422Z,1.90
2018-02-17T18:08:37.960Z,1.80
2018-02-17T18:11:05.523Z,1.70
2018-02-17T18:13:33.062Z,1.70
2018-02-17T18:16:00.623Z,1.60
2018-02-17T18:18:28.162Z,1.70
2018-02-17T18:20:55.737Z,1.70
2018-02-17T18:23:23.275Z,1.70
2018-02-17T18:25:50.830Z,1.60
2018-02-17T18:28:18.362Z,1.70
2018-02-17T18:30:45.923Z,1.70
2018-02-17T18:33:14.234Z,1.60
2018-02-17T18:35:41.790Z,1.60
2018-02-17T18:38:09.317Z,1.60
2018-02-17T18:40:36.870Z,1.70
2018-02-17T18:43:04.494Z,1.60
2018-02-17T18:45:32.071Z,1.60
2018-02-17T18:47:59.614Z,1.50
2018-02-17T18:50:27.159Z,1.40
2018-02-17T18:52:54.696Z,1.20
2018-02-17T18:55:23.014Z,1.00
2018-02-17T18:57:50.547Z,1.00
2018-02-17T19:00:18.098Z,0.90
2018-02-17T19:02:45.631Z,0.70
2018-02-17T19:05:13.183Z,0.50
2018-02-17T19:07:40.711Z,0.50
2018-02-17T19:10:08.266Z,0.40
2018-02-17T19:12:35.807Z,0.60
2018-02-17T19:15:03.366Z,0.60
2018-02-17T19:17:30.902Z,0.50
2018-02-17T19:19:59.227Z,0.40
2018-02-17T19:22:26.763Z,0.30
2018-02-17T19:24:54.317Z,0.40
2018-02-17T19:27:21.846Z,0.40
2018-02-17T19:29:49.406Z,0.30
2018-02-17T19:34:51.014Z,0.10
2018-02-17T19:37:18.546Z,0.20
2018-02-17T19:39:46.874Z,0.20
2018-02-17T19:42:14.409Z,0.20
2018-02-17T19:44:43.159Z,0.20
2018-02-17T19:47:11.636Z,0.10
2018-02-17T19:49:39.211Z,0.10
2018-02-17T19:52:07.511Z,0.00
2018-02-17T19:54:35.054Z,0.00
2018-02-17T19:57:03.367Z,0.00
2018-02-17T19:59:30.908Z,-0.10
2018-02-17T20:01:58.566Z,0.00
2018-02-17T20:04:26.103Z,0.00
2018-02-17T20:06:54.430Z,-0.10
2018-02-17T20:09:21.964Z,-0.10
2018-02-17T20:11:49.629Z,-0.20
2018-02-17T20:14:17.172Z,-0.30
2018-02-17T20:16:45.507Z,-0.40
2018-02-17T20:19:13.043Z,-0.40
2018-02-17T20:21:40.603Z,-0.40
2018-02-17T20:24:08.170Z,-0.50
2018-02-17T20:26:35.734Z,-0.50
2018-02-17T20:29:03.306Z,-0.60
2018-02-17T20:31:30.899Z,-0.70
2018-02-17T20:33:58.439Z,-0.70
2018-02-17T20:36:25.994Z,-0.70
2018-02-17T20:38:53.527Z,-0.70
2018-02-17T20:41:21.091Z,-0.70
2018-02-17T20:43:48.636Z,-0.70
2018-02-17T20:46:16.194Z,-0.80
2018-02-17T20:48:43.744Z,-0.90
2018-02-17T20:51:11.320Z,-0.90
2018-02-17T20:53:38.854Z,-0.90
2018-02-17T20:56:07.181Z,-1.00
2018-02-17T20:58:34.747Z,-1.00
2018-02-17T21:01:02.310Z,-1.10
2018-02-17T21:03:29.847Z,-1.00
2018-02-17T21:05:57.404Z,-1.00
2018-02-17T21:08:24.937Z,-0.90
2018-02-17T21:10:52.502Z,-0.90
2018-02-17T21:13:20.039Z,-0.90
2018-02-17T21:15:48.367Z,-1.00
2018-02-17T21:18:15.899Z,-1.00
2018-02-17T21:20:43.459Z,-1.10
2018-02-17T21:23:11.003Z,-1.10
2018-02-17T21:25:38.574Z,-0.90
2018-02-17T21:28:06.382Z,-0.60
2018-02-17T21:30:33.942Z,-0.40
2018-02-17T21:33:01.474Z,-0.40
2018-02-17T21:35:29.039Z,-0.50
2018-02-17T21:37:56.582Z,-0.60
2018-02-17T21:40:24.144Z,-0.70
2018-02-17T21:42:51.678Z,-0.80
2018-02-17T21:45:20.002Z,-0.90
2018-02-17T21:47:47.534Z,-0.90
2018-02-17T21:50:15.098Z,-0.80
2018-02-17T21:52:42.640Z,-0.80
2018-02-17T21:55:10.981Z,-0.90
2018-02-17T21:57:38.535Z,-0.90
2018-02-17T22:00:06.094Z,-0.70
2018-02-17T22:02:33.631Z,-0.80
2018-02-17T22:05:01.170Z,-0.80
2018-02-17T22:07:28.738Z,-0.90
2018-02-17T22:09:56.273Z,-0.90
2018-02-17T22:12:24.661Z,-0.90
2018-02-17T22:14:52.176Z,-0.90
2018-02-17T22:17:19.740Z,-0.80
2018-02-17T22:19:47.282Z,-0.80
2018-02-17T22:22:14.850Z,-0.90
2018-02-17T22:24:42.405Z,-0.90
2018-02-17T22:27:09.975Z,-0.90
2018-02-17T22:29:37.517Z,-0.40
2018-02-17T22:32:05.082Z,-0.40
2018-02-17T22:34:32.622Z,-0.50
2018-02-17T22:37:00.188Z,-0.60
2018-02-17T22:39:27.734Z,-0.60
2018-02-17T22:41:55.298Z,-0.70
2018-02-17T22:44:22.841Z,-0.60
2018-02-17T22:46:50.407Z,-0.80
2018-02-17T22:49:17.941Z,-0.80
2018-02-17T22:51:46.283Z,-0.70
2018-02-17T22:54:13.824Z,-0.70
2018-02-17T22:56:41.393Z,-0.70
2018-02-17T22:59:08.927Z,-0.70
2018-02-17T23:01:36.504Z,-0.70
2018-02-17T23:04:04.040Z,-0.60
2018-02-17T23:06:31.612Z,-0.50
2018-02-17T23:08:59.155Z,-0.50
2018-02-17T23:11:26.719Z,-0.60
2018-02-17T23:13:54.266Z,-0.60
2018-02-17T23:16:22.596Z,-0.60
2018-02-17T23:18:50.145Z,-0.70
2018-02-17T23:21:17.711Z,-0.80
2018-02-17T23:23:45.253Z,-1.00
2018-02-17T23:26:12.816Z,-1.10
2018-02-17T23:28:40.349Z,-1.20
2018-02-17T23:31:08.678Z,-1.40
2018-02-17T23:33:36.223Z,-1.40
2018-02-17T23:36:03.787Z,-1.50
2018-02-17T23:38:31.322Z,-1.50
2018-02-17T23:40:58.896Z,-1.40
2018-02-17T23:43:26.447Z,-1.50
2018-02-17T23:45:54.012Z,-1.40
2018-02-17T23:48:21.550Z,-1.50
2018-02-17T23:50:49.122Z,-1.30
2018-02-17T23:53:16.667Z,-1.10
2018-02-17T23:55:44.999Z,-1.20
2018-02-17T23:58:12.552Z,-1.20
